Aeroporto :
LOGIN :

Iscrizione | Disclaimer

   EN    FR    IT 

 










Sommario :    VFR   VFR Marginale   IFR   IFR Intensivo   IFR Molto Intensivo
Visibilità : 
Base nubi : 
>= 8 km
>= 3000ft
5 / 8 km
1000 / 3000 ft
1500m / 5 km
500 / 1000 ft
800 / 1500m
200 / 500 ft
< 800m
< 200 ft
Simboli :   Temporali  Nebbia  Neve Forte  Precipitazioni Forti  Vento > 20 kt
SIGMETs :   Varie  Temporali  Ghiacco  Turbolenza  Onda orograficha  Ceneri Vulcaniche






- Altitudine del aeroporto : 20 ft
- Codice IATA : TIV


LYTV - Tivat - Montenegro

ULTIMO METAR :
  • 300700Z 01006KT CAVOK 12/M03 Q1016 NOSIG

METARs OBSOLETI :
  • 300630Z VRB05KT CAVOK 12/M03 Q1016 NOSIG
  • 300600Z 36007KT 280V070 CAVOK 12/M03 Q1016 NOSIG
  • 300530Z 34006KT 300V030 CAVOK 12/M02 Q1015 NOSIG
  • 300500Z 34007G17KT CAVOK 12/M02 Q1015
  • 300430Z 32008KT 280V350 CAVOK 12/M01 Q1015

TAF TAF LYTV
Valido dal 30 a 06 ore il 01 a 06 ore UTC


300500Z 3006/0106 35008KT CAVOK TX15/3013Z TN10/3006Z
PROB30
TEMPO 3006/3008 02015G25KT



MetMap, La meteo Aeronautica in un colpo d'occhio ! - Copyright ORBIFLY Dicembre 2007 - Disclaimer

ORBIFLY MET'MAP TEAM :

Programmazione e sviluppo : Alexandra Zaïnal
Concezione : Baudouin d'Aumeries
Aiuto per la programmazione : Marc-Olivier Méhu
Supporto tecnico e logistico : Manuel Goepfert
Aiuto per la traduzione : Arnaldo La Scala

Contatto : metmap@orbifly.com




FONTI E CREDITI :

   NOAA